Time;durP1;ratioP1;P1;durP2;ratioP2;P2;SDS_P1;SDS_P2;PMS_P1;PMS_P2;Temp;Humidity;BMP_temperature;BMP_pressure;BME280_temperature;BME280_humidity;BME280_pressure;Samples;Min_cycle;Max_cycle;Signal;HPM_P1;HPM_P2
2022/05/06 02:09:55;;;;;;;;;;;;;;;21.95;62.36;97621.33;586704;241;39943;-71
2022/05/06 02:12:25;;;;;;;;;;;;;;;21.95;63.68;97624.01;586954;241;47222;-71
2022/05/06 02:14:57;;;;;;;;;;;;;;;21.93;62.84;97620.78;586993;241;48375;-71
2022/05/06 02:17:29;;;;;;;;;;;;;;;21.94;62.87;97619.73;586974;241;45194;-71
2022/05/06 02:19:59;;;;;;;;;;;;;;;21.94;63.52;97619.73;586679;241;50690;-72
2022/05/06 02:22:31;;;;;;;;;;;;;;;21.94;62.65;97617.86;586885;241;46923;-71
2022/05/06 02:25:01;;;;;;;;;;;;;;;21.94;62.84;97617.06;586824;241;47066;-72
2022/05/06 02:27:40;;;;;;;;;;;;;;;21.93;61.78;97621.61;587036;241;48088;-71
2022/05/06 02:33:15;;;;;;;;;;;;;;;21.93;63.93;97629.64;586999;241;45089;-71
2022/05/06 02:35:47;;;;;;;;;;;;;;;21.94;62.84;97622.41;586861;241;51173;-71
2022/05/06 02:38:16;;;;;;;;;;;;;;;21.94;63.92;97627.77;587046;241;47470;-71
2022/05/06 02:40:44;;;;;;;;;;;;;;;21.92;62.22;97622.66;586969;241;65569;-71
2022/05/06 02:43:11;;;;;;;;;;;;;;;21.93;63.28;97626.96;586884;241;68658;-71
2022/05/06 02:45:40;;;;;;;;;;;;;;;21.92;62.18;97624.53;586988;241;66556;-71
2022/05/06 02:48:08;;;;;;;;;;;;;;;21.93;62.29;97626.96;586998;241;63030;-71
2022/05/06 02:50:37;;;;;;;;;;;;;;;21.93;63.14;97626.96;586999;241;69286;-75
2022/05/06 02:53:06;;;;;;;;;;;;;;;21.92;62.59;97628.01;586952;241;68413;-75
2022/05/06 02:55:34;;;;;;;;;;;;;;;21.93;62.01;97626.13;586960;241;65346;-75
2022/05/06 02:58:03;;;;;;;;;;;;;;;21.90;61.79;97627.46;586856;241;66441;-75
2022/05/06 03:00:32;;;;;;;;;;;;;;;21.92;62.39;97629.89;587045;241;69092;-75
2022/05/06 03:03:01;;;;;;;;;;;;;;;21.90;61.98;97624.78;587019;241;65845;-75
2022/05/06 03:05:29;;;;;;;;;;;;;;;21.91;62.32;97638.99;586879;241;68380;-75
2022/05/06 03:07:58;;;;;;;;;;;;;;;21.90;61.34;97646.19;586968;241;65758;-75
2022/05/06 03:10:27;;;;;;;;;;;;;;;21.90;62.50;97640.84;587008;241;65400;-75
2022/05/06 03:12:58;;;;;;;;;;;;;;;21.90;61.94;97643.52;579671;241;65887;-72
2022/05/06 03:15:26;;;;;;;;;;;;;;;21.90;63.37;97640.84;578348;244;66120;-72
2022/05/06 03:17:57;;;;;;;;;;;;;;;21.91;63.47;97649.70;577216;245;46475;-76
2022/05/06 03:20:25;;;;;;;;;;;;;;;21.90;61.90;97648.06;578397;245;68567;-76
2022/05/06 03:22:53;;;;;;;;;;;;;;;21.89;62.36;97643.80;578314;245;68920;-76
2022/05/06 03:25:21;;;;;;;;;;;;;;;21.90;62.21;97650.74;578303;244;63266;-76
2022/05/06 03:28:07;;;;;;;;;;;;;;;21.90;62.21;97656.09;578329;245;68808;-76
2022/05/06 03:30:31;;;;;;;;;;;;;;;21.88;63.68;97656.38;578160;243;68588;-76
2022/05/06 03:33:10;;;;;;;;;;;;;;;21.89;61.65;97662.52;576187;245;46576;-75
2022/05/06 03:35:38;;;;;;;;;;;;;;;21.87;61.54;97654.74;578437;243;68877;-75
2022/05/06 03:38:07;;;;;;;;;;;;;;;21.88;61.75;97650.19;578283;243;66430;-75
2022/05/06 03:40:36;;;;;;;;;;;;;;;21.87;61.34;97654.74;578399;245;65971;-75
2022/05/06 03:43:04;;;;;;;;;;;;;;;21.87;62.44;97652.07;578449;245;69224;-75
2022/05/06 03:45:32;;;;;;;;;;;;;;;21.87;62.40;97649.39;578370;245;66447;-75
2022/05/06 03:48:00;;;;;;;;;;;;;;;21.86;61.38;97658.50;578340;245;65709;-75
2022/05/06 03:53:16;;;;;;;;;;;;;;;21.86;62.29;97658.50;578360;243;66055;-75
2022/05/06 03:55:45;;;;;;;;;;;;;;;21.85;62.17;97659.58;578418;243;42748;-75
2022/05/06 03:58:13;;;;;;;;;;;;;;;21.86;62.82;97658.50;578420;243;66367;-75
2022/05/06 04:00:41;;;;;;;;;;;;;;;21.85;62.40;97664.92;578368;245;69012;-75
2022/05/06 04:03:09;;;;;;;;;;;;;;;21.85;62.66;97669.45;578380;244;63136;-75
2022/05/06 04:05:37;;;;;;;;;;;;;;;21.83;62.23;97672.41;578343;245;69354;-75
2022/05/06 04:08:05;;;;;;;;;;;;;;;21.84;63.59;97671.33;578375;245;68847;-75
2022/05/06 04:10:34;;;;;;;;;;;;;;;21.83;63.12;97666.25;578414;245;62767;-75
2022/05/06 04:13:02;;;;;;;;;;;;;;;21.83;62.25;97675.08;583445;243;66533;-75
2022/05/06 04:15:32;;;;;;;;;;;;;;;21.84;62.46;97673.20;584078;242;68882;-75
2022/05/06 04:18:03;;;;;;;;;;;;;;;21.83;62.45;97672.41;579685;243;64594;-75
2022/05/06 04:23:31;;;;;;;;;;;;;;;21.82;61.93;97678.00;584085;243;69430;-75
2022/05/06 04:26:01;;;;;;;;;;;;;;;21.82;62.38;97673.45;584230;242;43461;-75
2022/05/06 04:28:30;;;;;;;;;;;;;;;21.82;62.84;97678.80;584217;243;69252;-74
2022/05/06 04:31:00;;;;;;;;;;;;;;;21.81;62.64;97679.88;584141;242;69047;-75
2022/05/06 04:33:28;;;;;;;;;;;;;;;21.81;62.16;97677.20;584893;242;64378;-75
2022/05/06 04:35:56;;;;;;;;;;;;;;;21.80;62.68;97672.92;584221;243;68621;-75
2022/05/06 04:38:26;;;;;;;;;;;;;;;21.82;63.89;97681.47;584217;242;49532;-75
2022/05/06 04:40:56;;;;;;;;;;;;;;;21.80;61.77;97675.59;584263;243;66160;-75
2022/05/06 04:43:24;;;;;;;;;;;;;;;21.81;63.50;97674.52;584249;243;69297;-75
2022/05/06 04:45:53;;;;;;;;;;;;;;;21.81;63.30;97679.88;584245;243;66455;-75
2022/05/06 04:48:21;;;;;;;;;;;;;;;21.81;63.91;97682.55;584222;243;65830;-75
2022/05/06 04:50:50;;;;;;;;;;;;;;;21.81;63.64;97687.10;584260;243;68875;-75
2022/05/06 04:53:18;;;;;;;;;;;;;;;21.81;62.28;97687.10;584264;242;68596;-75
2022/05/06 04:55:48;;;;;;;;;;;;;;;21.80;62.34;97691.66;584224;242;65601;-75
2022/05/06 04:58:19;;;;;;;;;;;;;;;21.78;63.32;97691.09;584314;243;47418;-75
2022/05/06 05:00:47;;;;;;;;;;;;;;;21.79;64.54;97676.64;584225;242;66464;-75
2022/05/06 05:03:15;;;;;;;;;;;;;;;21.77;63.85;97684.15;584235;242;65253;-75
2022/05/06 05:05:44;;;;;;;;;;;;;;;21.78;62.81;97685.75;585972;242;69298;-75
2022/05/06 05:08:12;;;;;;;;;;;;;;;21.79;63.07;97678.52;586548;241;68097;-75
2022/05/06 05:10:41;;;;;;;;;;;;;;;21.78;63.24;97682.27;586068;240;43498;-75
2022/05/06 05:13:10;;;;;;;;;;;;;;;21.77;62.24;97686.83;578750;242;69184;-75
2022/05/06 05:15:37;;;;;;;;;;;;;;;21.77;64.04;97684.15;578258;245;68526;-75
2022/05/06 05:18:07;;;;;;;;;;;;;;;21.76;63.36;97679.84;578287;245;62646;-75
2022/05/06 05:20:34;;;;;;;;;;;;;;;21.76;61.89;97674.49;578377;245;68901;-75
2022/05/06 05:23:02;;;;;;;;;;;;;;;21.76;62.25;97687.88;578785;243;66270;-75
2022/05/06 05:25:32;;;;;;;;;;;;;;;21.77;63.95;97708.23;578345;244;65715;-75
2022/05/06 05:28:00;;;;;;;;;;;;;;;21.77;63.24;97707.39;578537;243;69206;-75
2022/05/06 05:30:30;;;;;;;;;;;;;;;21.75;62.35;97685.47;578282;245;47692;-75
2022/05/06 05:32:59;;;;;;;;;;;;;;;21.76;62.35;97684.39;578391;245;65969;-75
2022/05/06 05:35:29;;;;;;;;;;;;;;;21.74;61.87;97681.97;578297;245;69072;-75
2022/05/06 05:37:58;;;;;;;;;;;;;;;21.75;63.91;97699.65;578370;245;45948;-75
2022/05/06 05:40:26;;;;;;;;;;;;;;;21.75;62.58;97691.63;578496;243;62496;-75
2022/05/06 05:42:54;;;;;;;;;;;;;;;21.75;62.19;97688.14;577620;245;69151;-75
2022/05/06 05:48:21;;;;;;;;;;;;;;;21.75;63.38;97688.14;578321;245;65917;-75
2022/05/06 05:50:56;;;;;;;;;;;;;;;21.74;64.42;97681.97;577331;244;46851;-75
2022/05/06 05:53:25;;;;;;;;;;;;;;;21.75;65.00;97688.95;578243;245;50426;-75
2022/05/06 05:55:53;;;;;;;;;;;;;;;21.73;62.67;97691.06;578381;245;62666;-75
2022/05/06 05:58:23;;;;;;;;;;;;;;;21.73;63.39;97688.39;578312;245;69539;-75
2022/05/06 06:00:51;;;;;;;;;;;;;;;21.72;64.46;97690.27;578717;243;68732;-75
2022/05/06 06:03:20;;;;;;;;;;;;;;;21.72;62.68;97681.44;578380;245;44300;-75
2022/05/06 06:05:48;;;;;;;;;;;;;;;21.72;63.74;97684.12;578384;245;69071;-75
2022/05/06 06:08:16;;;;;;;;;;;;;;;21.72;63.02;97681.44;578348;245;66087;-75
2022/05/06 06:10:44;;;;;;;;;;;;;;;21.70;64.35;97675.54;578326;245;65592;-75
2022/05/06 06:13:14;;;;;;;;;;;;;;;21.70;63.09;97683.56;584873;242;53067;-75
2022/05/06 06:15:44;;;;;;;;;;;;;;;21.71;63.99;97685.97;586547;241;47129;-75
2022/05/06 06:18:12;;;;;;;;;;;;;;;21.71;62.21;97687.84;586387;242;65854;-75
2022/05/06 06:20:40;;;;;;;;;;;;;;;21.72;62.74;97678.77;586227;242;66442;-75
2022/05/06 06:23:08;;;;;;;;;;;;;;;21.71;62.10;97679.81;586334;242;69034;-75
2022/05/06 06:25:36;;;;;;;;;;;;;;;21.71;62.18;97680.61;586318;242;65218;-75
2022/05/06 06:28:05;;;;;;;;;;;;;;;21.72;63.12;97676.89;586587;241;70504;-75
2022/05/06 06:30:33;;;;;;;;;;;;;;;21.73;63.37;97678.48;586238;242;69004;-75
2022/05/06 06:33:02;;;;;;;;;;;;;;;21.73;63.16;97672.34;586435;242;43437;-75
2022/05/06 06:35:29;;;;;;;;;;;;;;;21.72;62.91;97674.22;586337;241;68700;-75
2022/05/06 06:38:01;;;;;;;;;;;;;;;21.73;62.82;97680.37;586485;242;45475;-75
2022/05/06 06:40:30;;;;;;;;;;;;;;;21.73;63.81;97672.34;586353;242;42514;-73
2022/05/06 06:43:04;;;;;;;;;;;;;;;21.73;63.89;97670.47;586324;242;66598;-71
2022/05/06 06:45:49;;;;;;;;;;;;;;;21.74;64.24;97676.61;582106;242;39710;-71
2022/05/06 06:48:34;;;;;;;;;;;;;;;21.75;65.58;97669.42;580735;242;48888;-71
2022/05/06 06:51:10;;;;;;;;;;;;;;;21.73;65.40;97669.66;586302;242;52312;-70
2022/05/06 06:53:42;;;;;;;;;;;;;;;21.72;65.70;97676.09;586192;241;45935;-73
2022/05/06 06:56:09;;;;;;;;;;;;;;;21.72;64.76;97668.06;586422;242;63049;-73
2022/05/06 06:58:37;;;;;;;;;;;;;;;21.73;65.08;97670.47;586379;242;66490;-73
2022/05/06 07:01:06;;;;;;;;;;;;;;;21.72;65.02;97660.84;586291;242;66265;-70
2022/05/06 07:03:34;;;;;;;;;;;;;;;21.73;65.39;97656.29;586447;242;65353;-71
2022/05/06 07:14:21;;;;;;;;;;;;;;;21.77;64.46;97661.91;578356;243;68832;-71
2022/05/06 07:16:49;;;;;;;;;;;;;;;21.77;65.49;97661.91;578352;245;66344;-71
2022/05/06 07:19:16;;;;;;;;;;;;;;;21.76;66.10;97658.44;578295;245;63114;-71
2022/05/06 07:21:44;;;;;;;;;;;;;;;21.77;65.24;97659.24;578321;245;66175;-71
2022/05/06 07:24:11;;;;;;;;;;;;;;;21.77;64.27;97662.75;578089;243;66454;-72
2022/05/06 07:26:39;;;;;;;;;;;;;;;21.76;64.72;97658.44;578252;245;63052;-71
2022/05/06 07:29:06;;;;;;;;;;;;;;;21.77;64.87;97660.07;578240;245;66402;-71
2022/05/06 07:31:34;;;;;;;;;;;;;;;21.77;65.33;97657.39;578245;245;68674;-71
2022/05/06 07:34:01;;;;;;;;;;;;;;;21.77;64.43;97662.75;577219;244;65196;-72
2022/05/06 07:36:29;;;;;;;;;;;;;;;21.79;65.29;97652.56;577093;245;68678;-72
2022/05/06 07:38:56;;;;;;;;;;;;;;;21.79;63.94;97649.89;576990;245;68002;-71
2022/05/06 07:41:25;;;;;;;;;;;;;;;21.80;63.97;97651.52;577157;245;65336;-72
2022/05/06 07:43:54;;;;;;;;;;;;;;;21.81;65.09;97647.77;577805;245;68735;-72
2022/05/06 07:46:24;;;;;;;;;;;;;;;21.81;64.52;97646.97;577979;243;68581;-71
2022/05/06 07:48:52;;;;;;;;;;;;;;;21.81;65.09;97650.44;578182;245;60099;-72
2022/05/06 07:51:20;;;;;;;;;;;;;;;21.82;64.60;97648.56;578532;243;68878;-71
2022/05/06 07:53:49;;;;;;;;;;;;;;;21.82;64.42;97652.05;578759;242;68290;-72
2022/05/06 07:56:19;;;;;;;;;;;;;;;21.82;65.15;97644.02;578354;243;65488;-71
2022/05/06 07:58:47;;;;;;;;;;;;;;;21.81;63.52;97653.12;578255;245;68912;-71
2022/05/06 08:01:14;;;;;;;;;;;;;;;21.83;64.65;97650.20;578428;243;66682;-71
2022/05/06 08:06:30;;;;;;;;;;;;;;;21.83;64.48;97648.32;578285;243;68888;-72
2022/05/06 08:08:59;;;;;;;;;;;;;;;21.84;64.40;97649.92;578535;242;66899;-71
2022/05/06 08:11:27;;;;;;;;;;;;;;;21.84;64.13;97649.92;580384;241;65356;-71
2022/05/06 08:13:55;;;;;;;;;;;;;;;21.84;64.37;97652.59;586939;241;68629;-72
2022/05/06 08:16:24;;;;;;;;;;;;;;;21.84;64.24;97652.59;586774;241;68579;-71
2022/05/06 08:18:53;;;;;;;;;;;;;;;21.86;64.63;97655.02;586928;241;65222;-72
2022/05/06 08:21:20;;;;;;;;;;;;;;;21.85;64.11;97651.55;586446;241;66197;-72
2022/05/06 08:23:49;;;;;;;;;;;;;;;21.86;64.52;97646.99;583951;241;66463;-71
2022/05/06 08:26:17;;;;;;;;;;;;;;;21.86;64.32;97647.80;587098;241;62826;-72
2022/05/06 08:28:44;;;;;;;;;;;;;;;21.86;64.51;97653.14;586805;241;66739;-71
2022/05/06 08:31:12;;;;;;;;;;;;;;;21.88;64.42;97650.19;586791;241;66438;-72
2022/05/06 08:33:41;;;;;;;;;;;;;;;21.87;64.27;97649.39;586911;241;63911;-75
2022/05/06 08:36:14;;;;;;;;;;;;;;;21.87;64.36;97637.89;586087;241;48557;-75
2022/05/06 08:38:44;;;;;;;;;;;;;;;21.88;63.28;97650.19;586854;241;68720;-75
2022/05/06 08:41:13;;;;;;;;;;;;;;;21.88;64.27;97651.02;586976;241;65467;-75
2022/05/06 08:43:40;;;;;;;;;;;;;;;21.88;64.53;97653.70;587018;241;68902;-75
2022/05/06 08:51:40;;;;;;;;;;;;;;;21.89;63.38;97649.95;586951;241;68601;-77
2022/05/06 08:54:11;;;;;;;;;;;;;;;21.88;63.38;97643.00;586742;241;68271;-75
2022/05/06 08:56:38;;;;;;;;;;;;;;;21.89;63.44;97639.24;587058;241;65563;-75
2022/05/06 08:59:06;;;;;;;;;;;;;;;21.90;63.57;97640.04;586959;241;68743;-71
2022/05/06 09:01:33;;;;;;;;;;;;;;;21.90;63.95;97640.84;586884;241;68633;-71
2022/05/06 09:04:01;;;;;;;;;;;;;;;21.90;62.77;97632.81;586959;241;65395;-71
2022/05/06 09:06:31;;;;;;;;;;;;;;;21.91;62.82;97634.44;586959;241;68666;-71
2022/05/06 09:09:00;;;;;;;;;;;;;;;21.91;63.09;97642.47;586855;241;68216;-71
2022/05/06 09:14:15;;;;;;;;;;;;;;;21.93;63.65;97637.67;586795;241;68870;-70
2022/05/06 09:16:44;;;;;;;;;;;;;;;21.93;63.39;97643.02;586742;241;69052;-71
2022/05/06 09:19:25;;;;;;;;;;;;;;;21.94;62.74;97649.17;586706;241;63058;-71
2022/05/06 09:22:00;;;;;;;;;;;;;;;21.95;63.80;97635.52;587028;241;66791;-71
2022/05/06 09:24:28;;;;;;;;;;;;;;;21.95;62.19;97632.03;586915;241;68624;-71
2022/05/06 09:26:57;;;;;;;;;;;;;;;21.94;63.14;97623.20;586846;241;65369;-71
2022/05/06 09:29:28;;;;;;;;;;;;;;;21.95;63.19;97622.13;586931;241;66787;-71
2022/05/06 09:31:56;;;;;;;;;;;;;;;21.95;62.63;97626.69;586848;241;68642;-71
2022/05/06 09:34:29;;;;;;;;;;;;;;;21.97;62.92;97631.78;586987;241;63047;-72
2022/05/06 09:36:57;;;;;;;;;;;;;;;21.96;62.71;97622.93;587075;241;68388;-71
2022/05/06 09:39:25;;;;;;;;;;;;;;;21.97;62.80;97621.88;586957;241;68575;-71
2022/05/06 09:41:54;;;;;;;;;;;;;;;21.97;62.90;97621.88;586871;241;63161;-71
2022/05/06 09:44:23;;;;;;;;;;;;;;;21.98;63.13;97622.68;586813;241;68695;-71
2022/05/06 09:46:52;;;;;;;;;;;;;;;21.98;62.67;97628.03;586849;241;68804;-71
2022/05/06 09:49:19;;;;;;;;;;;;;;;21.98;62.85;97620.00;586962;241;65146;-71
2022/05/06 09:51:47;;;;;;;;;;;;;;;21.99;63.34;97621.60;586896;241;66501;-71
2022/05/06 09:54:16;;;;;;;;;;;;;;;21.99;63.05;97621.60;586970;241;68439;-71
2022/05/06 09:56:44;;;;;;;;;;;;;;;22.00;63.39;97623.23;586902;241;65216;-71
2022/05/06 09:59:11;;;;;;;;;;;;;;;21.99;62.61;97614.41;586900;241;68906;-71
2022/05/06 10:01:39;;;;;;;;;;;;;;;22.00;62.59;97620.55;586921;241;68597;-71
2022/05/06 10:04:06;;;;;;;;;;;;;;;22.00;62.70;97609.85;587028;241;63048;-71
2022/05/06 10:06:35;;;;;;;;;;;;;;;21.99;63.06;97614.41;586294;241;68647;-71
2022/05/06 10:09:03;;;;;;;;;;;;;;;22.00;63.03;97609.85;586793;241;68551;-71
2022/05/06 10:11:31;;;;;;;;;;;;;;;22.01;62.77;97616.80;586800;241;65382;-71
2022/05/06 10:14:01;;;;;;;;;;;;;;;22.00;63.26;97607.97;586899;241;68845;-71
2022/05/06 10:16:35;;;;;;;;;;;;;;;22.00;63.15;97599.94;587033;241;68748;-71
2022/05/06 10:19:03;;;;;;;;;;;;;;;22.02;62.71;97602.37;587004;241;65140;-72
2022/05/06 10:21:50;;;;;;;;;;;;;;;22.02;62.79;97605.05;586805;241;66576;-71
2022/05/06 10:24:18;;;;;;;;;;;;;;;22.01;62.55;97601.54;587002;241;66442;-71
2022/05/06 10:26:46;;;;;;;;;;;;;;;22.03;62.65;97593.27;580515;243;66392;-71
2022/05/06 10:32:29;;;;;;;;;;;;;;;22.02;62.71;97587.11;586820;241;68992;-71
2022/05/06 10:35:05;;;;;;;;;;;;;;;22.03;62.70;97579.88;586919;241;65443;-71
2022/05/06 10:37:37;;;;;;;;;;;;;;;22.03;62.58;97587.91;586947;241;67781;-71
2022/05/06 10:40:23;;;;;;;;;;;;;;;22.02;62.85;97579.08;586935;241;68570;-71
2022/05/06 10:42:51;;;;;;;;;;;;;;;22.03;62.91;97587.91;586980;241;63295;-72
2022/05/06 10:45:35;;;;;;;;;;;;;;;22.03;62.83;97567.30;586925;241;66450;-71
2022/05/06 10:47:58;;;;;;;;;;;;;;;22.03;63.02;97569.17;586640;241;66608;-71
2022/05/06 10:50:29;;;;;;;;;;;;;;;22.03;62.26;97572.65;586912;241;65194;-71
2022/05/06 10:52:55;;;;;;;;;;;;;;;22.03;62.51;97569.17;586902;241;68453;-71
2022/05/06 10:55:23;;;;;;;;;;;;;;;22.03;62.59;97561.14;586993;241;68582;-71
2022/05/06 10:57:55;;;;;;;;;;;;;;;22.04;62.46;97557.39;586896;241;64159;-71
2022/05/06 11:00:23;;;;;;;;;;;;;;;22.05;62.51;97567.05;586879;241;68897;-72
2022/05/06 11:02:51;;;;;;;;;;;;;;;22.04;62.36;97558.19;586963;241;66476;-72
2022/05/06 11:05:20;;;;;;;;;;;;;;;22.04;62.27;97558.19;586931;241;63066;-72
2022/05/06 11:07:49;;;;;;;;;;;;;;;22.04;62.17;97555.51;586957;241;68697;-72
2022/05/06 11:10:20;;;;;;;;;;;;;;;22.04;62.51;97558.19;586884;241;68471;-72
2022/05/06 11:12:49;;;;;;;;;;;;;;;22.05;62.00;97554.46;580188;241;65558;-72
2022/05/06 11:15:21;;;;;;;;;;;;;;;22.06;63.02;97552.58;578485;243;68543;-72
2022/05/06 11:17:50;;;;;;;;;;;;;;;22.05;62.25;97546.44;578379;245;68712;-72
2022/05/06 11:20:26;;;;;;;;;;;;;;;22.05;62.26;97541.08;578421;245;65358;-72
2022/05/06 11:23:06;;;;;;;;;;;;;;;22.05;62.25;97541.08;578389;245;68689;-72
2022/05/06 11:25:35;;;;;;;;;;;;;;;22.06;62.32;97544.55;578388;244;68304;-71
2022/05/06 11:28:04;;;;;;;;;;;;;;;22.06;62.80;97533.84;578368;245;63086;-75
2022/05/06 11:30:32;;;;;;;;;;;;;;;22.06;62.15;97556.05;578259;245;68420;-75
2022/05/06 11:33:01;;;;;;;;;;;;;;;22.05;62.64;97543.75;578320;245;68554;-76
2022/05/06 11:35:39;;;;;;;;;;;;;;;22.05;62.35;97533.05;578416;245;63305;-75
2022/05/06 11:38:07;;;;;;;;;;;;;;;22.05;62.46;97535.72;578343;245;68597;-77
2022/05/06 11:40:35;;;;;;;;;;;;;;;22.06;62.18;97553.38;578486;243;68298;-72
2022/05/06 11:43:10;;;;;;;;;;;;;;;22.07;62.51;97538.13;578272;245;65117;-72
2022/05/06 11:48:23;;;;;;;;;;;;;;;22.06;62.55;97539.20;578250;245;69075;-71
2022/05/06 11:50:52;;;;;;;;;;;;;;;22.06;62.47;97539.20;578309;245;65349;-71
2022/05/06 11:53:25;;;;;;;;;;;;;;;22.06;62.18;97528.49;578245;245;68698;-71
2022/05/06 11:55:50;;;;;;;;;;;;;;;22.06;62.44;97523.94;578342;243;68525;-71
2022/05/06 11:58:19;;;;;;;;;;;;;;;22.06;62.10;97525.82;578216;245;65942;-71
2022/05/06 12:00:49;;;;;;;;;;;;;;;22.06;62.27;97523.94;578308;242;48793;-71
2022/05/06 12:03:18;;;;;;;;;;;;;;;22.06;62.17;97520.47;577621;245;69055;-71
2022/05/06 12:05:47;;;;;;;;;;;;;;;22.05;61.87;97516.98;577382;245;65453;-71
2022/05/06 12:08:17;;;;;;;;;;;;;;;22.06;61.98;97512.44;578141;245;65697;-71
2022/05/06 12:10:44;;;;;;;;;;;;;;;22.07;62.37;97524.73;578181;245;66507;-70
2022/05/06 12:13:12;;;;;;;;;;;;;;;22.06;62.84;97509.76;586224;241;65664;-70
2022/05/06 12:15:40;;;;;;;;;;;;;;;22.06;62.69;97507.88;586866;241;66675;-70
2022/05/06 12:18:09;;;;;;;;;;;;;;;22.06;62.38;97507.88;586981;241;68598;-71
2022/05/06 12:20:41;;;;;;;;;;;;;;;22.06;62.44;97505.20;586959;241;63268;-71
2022/05/06 12:23:10;;;;;;;;;;;;;;;22.08;62.42;97507.63;586999;241;68672;-71
2022/05/06 12:25:41;;;;;;;;;;;;;;;22.06;62.23;97485.67;586863;241;68513;-71
2022/05/06 12:28:10;;;;;;;;;;;;;;;22.07;61.80;97492.62;586867;241;65649;-70
2022/05/06 12:30:38;;;;;;;;;;;;;;;22.07;61.90;97484.59;587038;241;66624;-70
2022/05/06 12:33:07;;;;;;;;;;;;;;;22.07;62.48;97493.45;586820;241;68589;-71
2022/05/06 12:35:52;;;;;;;;;;;;;;;22.07;62.17;97493.45;586966;241;63208;-71
2022/05/06 12:38:20;;;;;;;;;;;;;;;22.07;62.00;97501.48;586930;241;68716;-72
2022/05/06 12:40:49;;;;;;;;;;;;;;;22.07;62.13;97488.09;586667;241;68616;-72
2022/05/06 12:43:17;;;;;;;;;;;;;;;22.08;62.04;97488.89;586835;241;65631;-73
2022/05/06 12:46:12;;;;;;;;;;;;;;;22.06;62.21;97483.80;587014;241;68704;-72
2022/05/06 12:51:12;;;;;;;;;;;;;;;22.07;62.19;97476.56;586975;241;65375;-72
2022/05/06 12:53:39;;;;;;;;;;;;;;;22.06;62.45;97475.77;586937;241;68804;-73
2022/05/06 12:56:08;;;;;;;;;;;;;;;22.06;61.81;97472.28;586974;241;68229;-72
2022/05/06 12:58:36;;;;;;;;;;;;;;;22.07;62.25;97473.88;586798;241;63043;-72
2022/05/06 13:01:03;;;;;;;;;;;;;;;22.06;61.93;97474.97;586968;241;66606;-70
2022/05/06 13:03:31;;;;;;;;;;;;;;;22.06;62.18;97467.73;586861;241;66786;-70
2022/05/06 13:05:58;;;;;;;;;;;;;;;22.07;62.33;97472.03;586951;241;63103;-70
2022/05/06 13:08:27;;;;;;;;;;;;;;;22.07;62.31;97474.71;586814;241;68914;-70
2022/05/06 13:10:55;;;;;;;;;;;;;;;22.07;61.81;97480.06;586861;241;68388;-70
2022/05/06 13:13:25;;;;;;;;;;;;;;;22.07;62.58;97466.69;578599;243;46608;-70
2022/05/06 13:15:53;;;;;;;;;;;;;;;22.07;61.93;97458.66;578398;245;68695;-70
2022/05/06 13:18:21;;;;;;;;;;;;;;;22.07;62.66;97463.17;578322;243;68574;-70
2022/05/06 13:20:48;;;;;;;;;;;;;;;22.07;62.11;97469.36;578488;244;64857;-70
2022/05/06 13:23:16;;;;;;;;;;;;;;;22.07;62.44;97466.69;578299;245;68355;-75
2022/05/06 13:25:44;;;;;;;;;;;;;;;22.07;61.84;97458.66;578751;243;66322;-75
2022/05/06 13:28:12;;;;;;;;;;;;;;;22.08;62.26;97451.42;578539;243;65447;-75
2022/05/06 13:30:39;;;;;;;;;;;;;;;22.08;62.50;97451.42;573996;245;66678;-75
2022/05/06 13:33:07;;;;;;;;;;;;;;;22.07;62.08;97453.30;590042;237;66538;-75
2022/05/06 13:35:34;;;;;;;;;;;;;;;22.07;61.66;97455.15;593045;238;63025;-75
2022/05/06 13:38:02;;;;;;;;;;;;;;;22.07;61.86;97455.15;592200;238;68700;-75
2022/05/06 13:40:30;;;;;;;;;;;;;;;22.07;62.43;97453.30;592864;238;68605;-75
2022/05/06 13:42:58;;;;;;;;;;;;;;;22.08;61.99;97456.77;588136;238;65136;-75
2022/05/06 13:45:26;;;;;;;;;;;;;;;22.07;61.93;97455.15;588755;240;68643;-75
2022/05/06 13:47:53;;;;;;;;;;;;;;;22.07;62.35;97450.63;587372;241;68466;-75
2022/05/06 13:50:21;;;;;;;;;;;;;;;22.07;61.83;97444.44;591370;238;63042;-75
2022/05/06 13:52:50;;;;;;;;;;;;;;;22.08;61.42;97440.72;592143;238;68711;-75
2022/05/06 13:55:17;;;;;;;;;;;;;;;22.07;61.52;97447.12;592751;238;68765;-75
2022/05/06 14:00:33;;;;;;;;;;;;;;;22.08;62.15;97446.06;592229;238;66561;-75
2022/05/06 14:03:01;;;;;;;;;;;;;;;22.07;62.08;97447.95;589228;238;68561;-75
2022/05/06 14:05:28;;;;;;;;;;;;;;;22.08;62.17;97443.39;591994;238;65384;-76
2022/05/06 14:08:00;;;;;;;;;;;;;;;22.07;62.18;97445.27;591122;238;68666;-75
2022/05/06 14:10:28;;;;;;;;;;;;;;;22.08;61.54;97448.74;590224;238;66329;-75
2022/05/06 14:12:56;;;;;;;;;;;;;;;22.07;62.53;97439.09;597086;236;63028;-75
2022/05/06 14:15:23;;;;;;;;;;;;;;;22.08;62.46;97435.36;597661;237;66442;-75
2022/05/06 14:17:51;;;;;;;;;;;;;;;22.08;62.52;97435.36;597670;237;66829;-75
2022/05/06 14:20:18;;;;;;;;;;;;;;;22.08;62.18;97438.84;597681;237;63039;-75
2022/05/06 14:22:46;;;;;;;;;;;;;;;22.07;62.17;97439.09;597656;237;68809;-75
2022/05/06 14:25:16;;;;;;;;;;;;;;;22.07;61.33;97431.89;597702;237;68578;-75
2022/05/06 14:27:46;;;;;;;;;;;;;;;22.08;62.11;97430.01;597744;237;45255;-75
2022/05/06 14:30:14;;;;;;;;;;;;;;;22.08;61.96;97430.01;597689;237;69255;-75
2022/05/06 14:32:43;;;;;;;;;;;;;;;22.07;62.16;97431.06;597700;237;68562;-75
2022/05/06 14:35:16;;;;;;;;;;;;;;;22.07;62.52;97431.89;597718;237;65377;-75
2022/05/06 14:37:51;;;;;;;;;;;;;;;22.07;62.69;97426.53;597695;237;68473;-75
2022/05/06 14:40:19;;;;;;;;;;;;;;;22.07;62.51;97431.06;597670;237;68652;-75
2022/05/06 14:42:47;;;;;;;;;;;;;;;22.07;62.11;97423.86;597634;237;65378;-75
2022/05/06 14:45:15;;;;;;;;;;;;;;;22.08;62.71;97424.66;597728;237;68876;-75
2022/05/06 14:47:42;;;;;;;;;;;;;;;22.07;61.98;97423.86;597584;237;66494;-75
2022/05/06 14:50:10;;;;;;;;;;;;;;;22.07;62.54;97420.35;597646;237;63170;-74
2022/05/06 14:52:38;;;;;;;;;;;;;;;22.07;61.98;97423.03;596570;237;68709;-75
2022/05/06 14:55:06;;;;;;;;;;;;;;;22.07;62.32;97423.86;596799;237;66492;-74
2022/05/06 14:57:35;;;;;;;;;;;;;;;22.06;62.18;97426.79;596732;237;63282;-75
2022/05/06 15:00:04;;;;;;;;;;;;;;;22.06;62.07;97416.08;597676;237;66854;-74
2022/05/06 15:02:31;;;;;;;;;;;;;;;22.06;62.83;97411.53;597671;237;68689;-75
2022/05/06 15:04:59;;;;;;;;;;;;;;;22.06;62.27;97411.53;597668;237;65362;-75
2022/05/06 15:07:26;;;;;;;;;;;;;;;22.07;62.66;97406.97;597682;237;68632;-75
2022/05/06 15:09:54;;;;;;;;;;;;;;;22.07;62.33;97415.00;597703;237;68437;-75
2022/05/06 15:12:23;;;;;;;;;;;;;;;22.07;62.27;97412.33;599813;236;65386;-75
2022/05/06 15:14:51;;;;;;;;;;;;;;;22.07;63.33;97406.97;601287;236;68669;-75
2022/05/06 15:17:18;;;;;;;;;;;;;;;22.06;62.36;97414.20;601257;236;68583;-75
2022/05/06 15:19:47;;;;;;;;;;;;;;;22.07;62.36;97410.47;598036;236;65384;-75
2022/05/06 15:22:15;;;;;;;;;;;;;;;22.06;62.08;97406.17;601286;236;68716;-75
2022/05/06 15:24:42;;;;;;;;;;;;;;;22.06;62.20;97408.84;601304;235;65928;-75
2022/05/06 15:27:10;;;;;;;;;;;;;;;22.07;61.94;97407.80;601016;235;63175;-75
2022/05/06 15:29:38;;;;;;;;;;;;;;;22.07;62.20;97407.80;601104;235;68549;-75
2022/05/06 15:32:06;;;;;;;;;;;;;;;22.07;62.31;97406.97;601131;235;68575;-75
2022/05/06 15:34:34;;;;;;;;;;;;;;;22.07;62.74;97405.12;601276;236;65148;-75
2022/05/06 15:37:01;;;;;;;;;;;;;;;22.08;62.35;97406.72;601214;235;68311;-75
2022/05/06 15:39:29;;;;;;;;;;;;;;;22.08;62.59;97408.59;601127;235;68457;-75
2022/05/06 15:41:56;;;;;;;;;;;;;;;22.07;62.62;97398.94;601230;236;65439;-75
2022/05/06 15:44:24;;;;;;;;;;;;;;;22.05;62.34;97399.23;601225;235;68520;-76
2022/05/06 15:46:51;;;;;;;;;;;;;;;22.05;62.26;97398.43;601087;236;68560;-75
2022/05/06 15:49:19;;;;;;;;;;;;;;;22.04;62.61;97397.60;601217;235;65434;-75